Seiyu Maru — JD3189 — position and weather

sailwx.info

Track history (hours):
 
Tides and Currents Weather Stations Pressure Air Temp Water Temp Dewpoint Dewpoint Depression Visibility Wind Speed Wind Dir Waves Ship Positions

Seiyu Maru

Last reported at 2016-Sep-29 00:33 UTC. Time now 2016-Sep-29 22:09 UTC.
Position N 34°35' E 135°28'.

Length 75 m; draft 4.5 m.

Type: Cargo ship. MMSI: 431002433.

Date/timePositionNaut miles runAvg speedWind from/ knotsBaromVisibWave heightAir tempDewpointWater temp
2016-Sep-29 00:33N 34°35' E 135°28'0 0.0
2016-Sep-28 19:08N 34°35' E 135°28'0 0.0
2016-Sep-28 16:33N 34°35' E 135°28'0 0.0
2016-Sep-28 15:32N 34°35' E 135°28'0 0.0
2016-Sep-28 12:20N 34°35' E 135°28'0 0.0
2016-Sep-28 08:33N 34°35' E 135°28'0 0.0
2016-Sep-28 03:33N 34°35' E 135°28'3 3.0
2016-Sep-28 02:33N 34°36' E 135°24'4 4.2
2016-Sep-28 01:33N 34°39' E 135°28'0 0.0
2016-Sep-27 23:28N 34°39' E 135°28'0 0.0
2016-Sep-27 19:33N 34°39' E 135°28'0 0.0
2016-Sep-27 14:33N 34°39' E 135°28'0 0.0
2016-Sep-27 13:33N 34°39' E 135°28'19 0.7
2016-Sep-26 11:33N 34°33' E 135°05'230 8.2
2016-Sep-25 07:32N 34°51' E 139°44'7010.0
2016-Sep-25 00:29N 35°36' E 140°50'2210.7
2016-Sep-24 22:28N 35°57' E 140°57'1111.3
2016-Sep-24 21:29N 36°08' E 140°58'2211.2
2016-Sep-24 19:34N 36°29' E 141°00'  
Track history (hours):
 
Tides and Currents Weather Stations Pressure Air Temp Water Temp Dewpoint Dewpoint Depression Visibility Wind Speed Wind Dir Waves Ship Positions

Seiyu Maru

Last reported at 2016-Sep-29 00:33 UTC. Time now 2016-Sep-29 22:09 UTC.
Position N 34°35' E 135°28'.

Length 75 m; draft 4.5 m.

Type: Cargo ship. MMSI: 431002433.

Date/timePositionNaut miles runAvg speedWind from/ knotsBaromVisibWave heightAir tempDewpointWater temp
2016-Sep-29 00:33N 34°35' E 135°28'0 0.0
2016-Sep-28 19:08N 34°35' E 135°28'0 0.0
2016-Sep-28 16:33N 34°35' E 135°28'0 0.0
2016-Sep-28 15:32N 34°35' E 135°28'0 0.0
2016-Sep-28 12:20N 34°35' E 135°28'0 0.0
2016-Sep-28 08:33N 34°35' E 135°28'0 0.0
2016-Sep-28 03:33N 34°35' E 135°28'3 3.0
2016-Sep-28 02:33N 34°36' E 135°24'4 4.2
2016-Sep-28 01:33N 34°39' E 135°28'0 0.0
2016-Sep-27 23:28N 34°39' E 135°28'0 0.0
2016-Sep-27 19:33N 34°39' E 135°28'0 0.0
2016-Sep-27 14:33N 34°39' E 135°28'0 0.0
2016-Sep-27 13:33N 34°39' E 135°28'19 0.7
2016-Sep-26 11:33N 34°33' E 135°05'230 8.2
2016-Sep-25 07:32N 34°51' E 139°44'7010.0
2016-Sep-25 00:29N 35°36' E 140°50'2210.7
2016-Sep-24 22:28N 35°57' E 140°57'1111.3
2016-Sep-24 21:29N 36°08' E 140°58'2211.2
2016-Sep-24 19:34N 36°29' E 141°00'  

Dump ship's entire track history